Alice, North Dakota
Current Conditions -  °F | °C
As of 7:55 AM on Thursday 27 Nov 2014 (Local Time) from KBAC Reporting Station
NA  
Wind Chill: -31°   Ceiling: NA
Heat Index: -18°   Visibility: NA
Dew Point: -22°   Wind: 5mph
Humidity: 84%   Direction: 210°SSW
Pressure: 30.44"   Gusts: NA
Location:  46.7681°N, 97.6777°W
Report Text: KBAC 271355Z AUTO 21004KT M28/M30 A3044 RMK AO2
Loading
Personal Weather Stations






























Interactive Weather Map New forecast layout! Learn more

10-Day Weather Forecast

Advertisements
Track Severe Weather on mobile